Time;durP1;ratioP1;P1;durP2;ratioP2;P2;SDS_P1;SDS_P2;PMS_P1;PMS_P2;Temp;Humidity;BMP_temperature;BMP_pressure;BME280_temperature;BME280_humidity;BME280_pressure;Samples;Min_cycle;Max_cycle;Signal;HPM_P1;HPM_P2
2023/09/01 00:01:16;;;;;;;9.73;4.10;;;;;;;16.39;100.00;101123.72;5012075;28;20049;-67
2023/09/01 00:03:42;;;;;;;13.75;4.78;;;;;;;16.35;100.00;101122.41;5020749;28;20614;-67
2023/09/01 00:06:13;;;;;;;12.63;4.60;;;;;;;16.33;100.00;101119.13;5025531;28;20076;-67
2023/09/01 00:08:41;;;;;;;12.30;4.50;;;;;;;16.25;100.00;101105.94;5024740;28;20454;-68
2023/09/01 00:11:08;;;;;;;9.30;4.45;;;;;;;16.24;100.00;101099.00;5019072;28;20116;-67
2023/09/01 00:13:34;;;;;;;10.65;4.63;;;;;;;16.24;100.00;101102.47;5011021;28;20246;-67
2023/09/01 00:16:01;;;;;;;10.45;4.65;;;;;;;16.20;100.00;101107.28;5028744;28;20049;-68
2023/09/01 00:18:27;;;;;;;10.48;4.88;;;;;;;16.21;100.00;101113.41;5004983;28;20402;-67
2023/09/01 00:21:00;;;;;;;9.85;4.22;;;;;;;16.26;100.00;101113.69;5031350;28;20045;-68
2023/09/01 00:23:27;;;;;;;12.52;4.45;;;;;;;16.22;100.00;101115.06;5021017;28;20060;-68
2023/09/01 00:25:58;;;;;;;10.93;4.78;;;;;;;16.17;100.00;101107.66;5028297;28;20083;-66
2023/09/01 00:28:25;;;;;;;11.32;5.45;;;;;;;16.13;100.00;101113.44;5009178;28;20172;-67
2023/09/01 00:30:54;;;;;;;12.05;4.68;;;;;;;16.15;100.00;101101.72;5017357;28;20058;-68
2023/09/01 00:33:22;;;;;;;12.30;4.72;;;;;;;16.18;100.00;101098.69;5027535;28;20049;-67
2023/09/01 00:35:52;;;;;;;11.25;4.88;;;;;;;16.17;100.00;101089.13;5021221;28;20084;-68
2023/09/01 00:38:19;;;;;;;11.35;4.40;;;;;;;16.14;100.00;101097.41;5027010;28;20473;-67
2023/09/01 00:40:48;;;;;;;11.07;4.40;;;;;;;16.18;100.00;101100.53;5009481;28;20081;-67
2023/09/01 00:43:16;;;;;;;13.88;5.63;;;;;;;16.18;100.00;101089.94;5017206;28;20135;-67
2023/09/01 00:45:43;;;;;;;11.77;4.97;;;;;;;16.16;100.00;101087.47;5023614;28;20061;-68
2023/09/01 00:48:12;;;;;;;9.20;5.00;;;;;;;16.17;100.00;101089.13;5015691;28;20049;-68
2023/09/01 00:50:40;;;;;;;11.40;4.50;;;;;;;16.18;100.00;101095.22;5024099;28;20395;-67
2023/09/01 00:53:07;;;;;;;11.20;4.90;;;;;;;16.19;100.00;101094.22;5013506;28;20053;-67
2023/09/01 00:55:35;;;;;;;9.02;4.43;;;;;;;16.16;100.00;101090.09;5014231;28;20671;-67
2023/09/01 00:58:02;;;;;;;12.00;5.00;;;;;;;16.07;100.00;101091.16;5022744;28;20053;-68
2023/09/01 01:00:32;;;;;;;7.85;4.00;;;;;;;15.98;100.00;101089.59;5025864;28;20050;-68
2023/09/01 01:03:05;;;;;;;9.98;4.90;;;;;;;15.96;100.00;101097.69;5019077;28;20060;-68
2023/09/01 01:05:38;;;;;;;13.98;4.95;;;;;;;15.96;100.00;101095.06;5017832;28;20049;-67
2023/09/01 01:08:20;;;;;;;9.10;4.95;;;;;;;15.81;100.00;101089.66;5020759;28;20049;-68
2023/09/01 01:10:58;;;;;;;9.20;5.75;;;;;;;15.83;100.00;101100.09;5009369;28;20684;-68
2023/09/01 01:13:31;;;;;;;12.27;5.63;;;;;;;15.79;100.00;101104.06;5022553;28;20620;-67
2023/09/01 01:15:59;;;;;;;11.90;4.95;;;;;;;15.77;100.00;101092.84;5016371;28;20470;-67
2023/09/01 01:18:26;;;;;;;15.05;5.40;;;;;;;15.79;100.00;101090.84;5025084;28;20077;-67
2023/09/01 01:21:04;;;;;;;12.13;4.90;;;;;;;15.80;100.00;101093.31;5021723;28;20558;-67
2023/09/01 01:23:32;;;;;;;9.57;4.68;;;;;;;15.81;100.00;101088.84;5020944;28;20103;-66
2023/09/01 01:25:58;;;;;;;10.17;4.83;;;;;;;15.79;100.00;101094.31;4999792;28;20146;-66
2023/09/01 01:28:25;;;;;;;12.23;5.03;;;;;;;15.78;100.00;101084.75;5019068;28;21263;-67
2023/09/01 01:30:51;;;;;;;13.57;5.13;;;;;;;15.77;100.00;101091.03;5025765;28;20564;-65
2023/09/01 01:33:55;;;;;;;8.05;4.05;;;;;;;15.72;100.00;101096.00;5021481;28;20334;-66
2023/09/01 01:36:24;;;;;;;7.60;4.07;;;;;;;15.69;100.00;101101.63;5025284;28;20060;-66
2023/09/01 01:39:05;;;;;;;12.38;4.45;;;;;;;15.63;100.00;101111.06;4997465;28;20059;-67
2023/09/01 01:41:43;;;;;;;9.93;5.00;;;;;;;15.53;100.00;101105.16;5017515;28;20462;-66
2023/09/01 01:44:12;;;;;;;;;;;;;;;15.47;100.00;101103.22;5023206;28;20119;-68
2023/09/01 01:46:40;;;;;;;10.52;5.15;;;;;;;15.39;100.00;101100.59;5017844;28;19929;-66
2023/09/01 01:49:10;;;;;;;11.20;5.05;;;;;;;15.32;100.00;101113.66;5021811;28;20049;-66
2023/09/01 01:51:36;;;;;;;8.38;4.63;;;;;;;15.19;100.00;101119.50;5010697;28;20115;-66
2023/09/01 01:54:03;;;;;;;12.02;5.13;;;;;;;15.16;100.00;101116.34;4998670;28;20146;-66
2023/09/01 01:56:30;;;;;;;12.75;6.03;;;;;;;15.11;100.00;101113.38;5013563;28;20541;-67
2023/09/01 01:58:56;;;;;;;9.38;4.32;;;;;;;15.11;100.00;101123.97;5020021;28;20115;-66
2023/09/01 02:01:23;;;;;;;14.88;4.93;;;;;;;15.11;100.00;101121.31;5016865;28;20057;-66
2023/09/01 02:03:49;;;;;;;9.45;4.55;;;;;;;15.04;100.00;101121.19;5002178;28;20053;-66
2023/09/01 02:06:16;;;;;;;9.82;4.20;;;;;;;15.01;100.00;101121.50;4999057;28;20099;-66
2023/09/01 02:08:42;;;;;;;7.45;4.60;;;;;;;14.98;100.00;101117.38;5008791;28;20149;-67
2023/09/01 02:11:09;;;;;;;12.70;4.40;;;;;;;14.94;100.00;101118.72;5024934;28;20053;-67
2023/09/01 02:13:35;;;;;;;11.02;4.10;;;;;;;14.93;100.00;101110.97;5015810;28;20468;-66
2023/09/01 02:16:05;;;;;;;7.72;4.85;;;;;;;14.92;100.00;101112.78;5020996;28;20045;-66
2023/09/01 02:18:32;;;;;;;12.43;4.85;;;;;;;14.91;100.00;101113.75;5016269;28;20049;-67
2023/09/01 02:20:58;;;;;;;6.72;4.95;;;;;;;14.87;100.00;101115.09;5015582;28;20045;-67
2023/09/01 02:23:25;;;;;;;7.38;4.50;;;;;;;14.85;100.00;101118.91;5021194;28;20092;-66
2023/09/01 02:25:52;;;;;;;10.60;4.50;;;;;;;14.80;100.00;101117.59;5019919;28;20049;-66
2023/09/01 02:28:18;;;;;;;11.50;4.95;;;;;;;14.80;100.00;101119.41;5025722;28;20548;-66
2023/09/01 02:30:45;;;;;;;9.50;4.50;;;;;;;14.76;100.00;101116.28;5013061;28;20698;-66
2023/09/01 02:33:11;;;;;;;8.38;4.35;;;;;;;14.73;100.00;101128.97;5024507;28;20059;-67
2023/09/01 02:35:44;;;;;;;10.25;4.50;;;;;;;14.73;100.00;101121.06;5017437;28;20454;-66
2023/09/01 02:38:11;;;;;;;8.98;4.72;;;;;;;14.71;100.00;101131.78;5008291;28;20073;-66
2023/09/01 02:40:40;;;;;;;8.10;4.47;;;;;;;14.69;100.00;101125.03;5030931;28;20407;-66
2023/09/01 02:43:06;;;;;;;8.38;4.25;;;;;;;14.60;100.00;101122.38;5015929;28;20123;-66
2023/09/01 02:45:33;;;;;;;12.43;5.25;;;;;;;14.65;100.00;101129.81;5023469;28;20815;-66
2023/09/01 02:47:59;;;;;;;14.77;5.00;;;;;;;14.63;100.00;101126.50;5012673;28;20097;-66
2023/09/01 02:50:26;;;;;;;11.52;5.38;;;;;;;14.65;100.00;101126.34;5016068;28;20057;-66
2023/09/01 02:52:53;;;;;;;14.35;5.18;;;;;;;14.62;100.00;101125.69;5018868;28;20103;-66
2023/09/01 02:55:19;;;;;;;12.05;5.05;;;;;;;14.61;100.00;101125.84;5019805;28;20124;-66
2023/09/01 02:57:45;;;;;;;11.95;5.53;;;;;;;14.59;100.00;101118.09;5024699;28;20085;-67
2023/09/01 03:00:17;;;;;;;12.43;5.35;;;;;;;14.58;100.00;101120.88;5015076;28;20049;-66
2023/09/01 03:02:45;;;;;;;9.20;6.35;;;;;;;14.57;100.00;101124.53;5024025;28;20060;-66
2023/09/01 03:05:11;;;;;;;9.77;6.03;;;;;;;14.59;100.00;101130.47;5014674;28;20422;-68
2023/09/01 03:07:39;;;;;;;10.80;5.55;;;;;;;14.60;100.00;101134.75;5017422;28;21443;-66
2023/09/01 03:10:07;;;;;;;10.88;5.47;;;;;;;14.64;100.00;101122.84;5027856;28;20127;-66
2023/09/01 03:12:37;;;;;;;14.13;5.40;;;;;;;14.66;100.00;101120.06;5015274;28;20152;-67
2023/09/01 03:15:07;;;;;;;15.77;5.85;;;;;;;14.69;100.00;101106.53;5026453;28;20057;-67
2023/09/01 03:17:34;;;;;;;15.05;6.13;;;;;;;14.68;100.00;101108.34;5015204;28;20593;-67
2023/09/01 03:20:01;;;;;;;11.77;5.82;;;;;;;14.69;100.00;101115.28;5014189;28;20044;-67
2023/09/01 03:22:27;;;;;;;10.07;5.88;;;;;;;14.65;100.00;101105.22;5028388;28;20546;-66
2023/09/01 03:24:54;;;;;;;11.48;5.70;;;;;;;14.61;100.00;101108.19;5013804;28;20100;-66
2023/09/01 03:27:21;;;;;;;9.38;5.78;;;;;;;14.63;100.00;101110.66;5019873;28;20392;-66
2023/09/01 03:29:53;;;;;;;11.48;5.90;;;;;;;14.58;100.00;101102.41;5015614;28;20049;-66
2023/09/01 03:32:19;;;;;;;14.98;6.05;;;;;;;14.56;100.00;101102.59;5018700;28;20090;-66
2023/09/01 03:34:46;;;;;;;13.70;5.93;;;;;;;14.57;100.00;101104.22;5013172;28;20130;-66
2023/09/01 03:37:13;;;;;;;16.23;6.40;;;;;;;14.59;100.00;101099.59;5018763;28;20279;-67
2023/09/01 03:39:39;;;;;;;13.23;7.00;;;;;;;14.62;100.00;101096.66;5019356;28;20041;-67
2023/09/01 03:42:06;;;;;;;13.20;6.38;;;;;;;14.65;100.00;101095.47;5020549;28;20144;-68
2023/09/01 03:44:32;;;;;;;11.35;7.03;;;;;;;14.69;100.00;101090.69;5023289;28;20458;-67
2023/09/01 03:46:59;;;;;;;10.95;6.13;;;;;;;14.69;100.00;101088.06;5009581;28;20087;-68
2023/09/01 03:49:26;;;;;;;12.23;6.75;;;;;;;14.72;100.00;101087.69;5015123;28;20053;-67
2023/09/01 03:51:53;;;;;;;11.18;6.22;;;;;;;14.71;100.00;101086.88;5018867;28;20071;-67
2023/09/01 03:54:19;;;;;;;11.32;6.70;;;;;;;14.71;100.00;101078.16;5027639;28;20584;-67
2023/09/01 03:56:46;;;;;;;12.77;6.93;;;;;;;14.74;100.00;101083.06;5026288;28;20049;-68
2023/09/01 03:59:12;;;;;;;14.43;6.82;;;;;;;14.74;100.00;101069.88;5000062;28;20049;-68
2023/09/01 04:01:39;;;;;;;10.98;6.78;;;;;;;14.77;100.00;101066.91;5019442;28;20542;-67
2023/09/01 04:04:06;;;;;;;10.98;6.72;;;;;;;14.73;100.00;101058.50;5009414;28;20507;-67
2023/09/01 04:06:33;;;;;;;17.20;7.35;;;;;;;14.78;100.00;101071.22;5024546;28;20049;-68
2023/09/01 04:08:59;;;;;;;16.80;7.90;;;;;;;14.77;100.00;101064.28;5019573;28;20139;-67
2023/09/01 04:11:26;;;;;;;11.50;6.80;;;;;;;14.81;100.00;101071.69;5016837;28;20049;-67
2023/09/01 04:13:55;;;;;;;13.77;7.63;;;;;;;14.85;100.00;101069.53;5030500;28;20060;-67
2023/09/01 04:16:22;;;;;;;11.48;6.88;;;;;;;14.85;100.00;101072.19;5018596;28;20056;-68
2023/09/01 04:18:49;;;;;;;11.15;6.93;;;;;;;14.88;100.00;101069.22;5019028;28;20068;-68
2023/09/01 04:21:16;;;;;;;15.13;8.02;;;;;;;14.93;100.00;101066.88;5018043;28;20448;-67
2023/09/01 04:23:43;;;;;;;16.27;7.70;;;;;;;14.94;100.00;101062.44;5022702;28;20116;-67
2023/09/01 04:26:09;;;;;;;14.80;8.30;;;;;;;14.96;100.00;101063.09;5023049;28;20144;-67
2023/09/01 04:28:36;;;;;;;14.43;8.30;;;;;;;14.93;100.00;101066.88;5020653;28;20061;-68
2023/09/01 04:31:03;;;;;;;15.38;8.45;;;;;;;14.96;100.00;101065.72;5016585;28;20049;-68
2023/09/01 04:33:30;;;;;;;16.92;8.73;;;;;;;14.97;100.00;101064.72;5016750;28;20532;-68
2023/09/01 04:35:59;;;;;;;14.45;8.30;;;;;;;14.98;100.00;101072.47;5025763;28;20053;-67
2023/09/01 04:38:26;;;;;;;15.68;8.48;;;;;;;14.98;100.00;101064.56;5019609;28;20831;-67
2023/09/01 04:41:00;;;;;;;16.17;7.88;;;;;;;15.04;100.00;101068.34;5005513;28;20045;-67
2023/09/01 04:43:26;;;;;;;15.40;7.55;;;;;;;15.06;100.00;101071.63;5020463;28;20053;-67
2023/09/01 04:45:54;;;;;;;12.85;7.75;;;;;;;15.10;100.00;101067.66;4993735;28;20053;-67
2023/09/01 04:48:21;;;;;;;12.90;7.95;;;;;;;15.12;100.00;101073.59;5020081;28;20053;-67
2023/09/01 04:50:48;;;;;;;13.90;8.48;;;;;;;15.15;100.00;101065.34;5018950;28;20041;-68
2023/09/01 04:53:15;;;;;;;16.05;8.15;;;;;;;15.18;100.00;101064.97;5025712;28;20134;-67
2023/09/01 04:55:42;;;;;;;15.35;8.27;;;;;;;15.22;100.00;101065.47;5017862;28;20111;-68
2023/09/01 04:58:08;;;;;;;19.30;8.82;;;;;;;15.24;100.00;101063.47;5019164;28;20070;-68
2023/09/01 05:00:35;;;;;;;16.35;8.77;;;;;;;15.17;100.00;101081.84;5020299;28;20508;-67
2023/09/01 05:03:02;;;;;;;18.75;9.05;;;;;;;15.22;100.00;101076.03;5016164;28;20084;-68
2023/09/01 05:05:28;;;;;;;15.93;8.18;;;;;;;15.26;100.00;101077.34;5018904;28;20061;-68
2023/09/01 05:07:56;;;;;;;12.50;7.93;;;;;;;15.27;100.00;101086.94;5018702;28;20132;-68
2023/09/01 05:10:22;;;;;;;17.73;9.45;;;;;;;15.28;100.00;101093.03;5020954;28;20100;-67
2023/09/01 05:12:49;;;;;;;15.98;9.68;;;;;;;15.28;100.00;101090.41;5019601;28;20141;-68
2023/09/01 05:15:15;;;;;;;17.92;9.35;;;;;;;15.30;100.00;101091.03;5011560;28;20057;-68
2023/09/01 05:17:42;;;;;;;15.70;8.52;;;;;;;15.31;100.00;101093.53;5021639;28;20045;-68
2023/09/01 05:20:11;;;;;;;15.43;9.07;;;;;;;15.32;100.00;101092.50;5017523;28;20049;-67
2023/09/01 05:22:38;;;;;;;16.08;9.27;;;;;;;15.36;100.00;101093.00;5022889;28;20436;-68
2023/09/01 05:25:05;;;;;;;18.77;9.23;;;;;;;15.35;100.00;101086.91;5012894;28;20140;-68
2023/09/01 05:27:32;;;;;;;20.75;9.68;;;;;;;15.38;100.00;101083.91;5016137;28;20054;-67
2023/09/01 05:29:58;;;;;;;17.67;9.10;;;;;;;15.41;100.00;101077.47;5020017;28;20131;-68
2023/09/01 05:32:25;;;;;;;15.00;10.10;;;;;;;15.44;100.00;101090.31;5019166;28;20253;-67
2023/09/01 05:34:51;;;;;;;18.00;11.02;;;;;;;15.42;100.00;101087.84;5026165;28;20053;-67
2023/09/01 05:37:18;;;;;;;21.00;11.93;;;;;;;15.46;100.00;101087.50;5020208;28;20114;-67
2023/09/01 05:39:44;;;;;;;18.08;11.15;;;;;;;15.52;100.00;101085.00;5017901;28;20207;-67
2023/09/01 05:42:11;;;;;;;20.20;9.77;;;;;;;15.59;100.00;101082.50;5010890;28;20865;-68
2023/09/01 05:44:37;;;;;;;21.25;10.75;;;;;;;15.66;100.00;101086.09;5027731;28;20147;-67
2023/09/01 05:47:04;;;;;;;19.55;10.52;;;;;;;15.69;100.00;101085.75;5020178;28;20745;-68
2023/09/01 05:49:31;;;;;;;24.35;10.13;;;;;;;15.72;100.00;101084.56;5015583;28;20076;-67
2023/09/01 05:51:58;;;;;;;19.05;10.93;;;;;;;15.72;100.00;101084.56;5001547;28;20053;-67
2023/09/01 05:54:25;;;;;;;17.58;9.43;;;;;;;15.74;100.00;101088.75;5010065;28;20076;-67
2023/09/01 05:56:52;;;;;;;19.17;10.32;;;;;;;15.77;100.00;101100.78;5014225;28;20053;-68
2023/09/01 05:59:19;;;;;;;15.95;8.93;;;;;;;15.78;100.00;101087.38;5018023;28;20085;-67
2023/09/01 06:01:46;;;;;;;17.58;9.20;;;;;;;15.82;100.00;101087.88;5021159;28;20081;-68
2023/09/01 06:04:13;;;;;;;15.30;8.13;;;;;;;15.84;100.00;101095.59;5030377;28;20395;-68
2023/09/01 06:06:40;;;;;;;18.38;8.85;;;;;;;15.90;100.00;101102.88;5015532;28;20049;-68
2023/09/01 06:09:07;;;;;;;11.80;7.53;;;;;;;15.88;100.00;101089.00;4999155;28;20077;-67
2023/09/01 06:11:35;;;;;;;14.43;7.57;;;;;;;15.95;100.00;101095.22;5010871;28;20494;-67
2023/09/01 06:14:03;;;;;;;17.80;8.45;;;;;;;15.98;100.00;101094.88;5029412;28;20319;-67
2023/09/01 06:16:29;;;;;;;13.30;8.15;;;;;;;16.00;100.00;101096.34;4997068;28;20045;-68
2023/09/01 06:18:59;;;;;;;12.63;7.72;;;;;;;16.01;100.00;101087.41;5020849;28;20057;-67
2023/09/01 06:21:25;;;;;;;18.15;7.55;;;;;;;16.08;100.00;101084.88;5024072;28;20045;-68
2023/09/01 06:23:52;;;;;;;11.80;7.20;;;;;;;16.13;100.00;101085.19;5008138;28;20059;-68
2023/09/01 06:26:18;;;;;;;13.75;7.60;;;;;;;16.22;100.00;101099.16;5019732;28;20057;-67
2023/09/01 06:28:46;;;;;;;11.70;6.70;;;;;;;16.29;100.00;101086.03;5014537;28;20446;-68
2023/09/01 06:31:14;;;;;;;12.10;6.30;;;;;;;16.34;100.00;101102.22;5023781;28;20045;-67
2023/09/01 06:33:43;;;;;;;11.73;6.70;;;;;;;16.40;100.00;101096.22;5026069;28;20405;-66
2023/09/01 06:36:12;;;;;;;14.52;7.15;;;;;;;16.46;100.00;101097.34;5015464;28;20393;-66
2023/09/01 06:38:42;;;;;;;12.90;6.47;;;;;;;16.56;100.00;101095.25;5001586;28;20144;-67
2023/09/01 06:41:09;;;;;;;21.73;8.18;;;;;;;16.58;100.00;101090.59;5014235;28;20045;-68
2023/09/01 06:43:36;;;;;;;14.63;6.82;;;;;;;16.68;100.00;101098.28;5023074;28;20443;-68
2023/09/01 06:46:02;;;;;;;12.18;6.38;;;;;;;16.75;100.00;101084.16;4996980;28;20057;-68
2023/09/01 06:48:30;;;;;;;12.90;5.78;;;;;;;16.79;100.00;101088.09;5026205;28;20053;-68
2023/09/01 06:50:59;;;;;;;10.18;5.63;;;;;;;16.91;100.00;101090.31;5017119;28;20053;-68
2023/09/01 06:53:26;;;;;;;15.45;7.35;;;;;;;16.96;100.00;101094.06;5008237;28;20045;-68
2023/09/01 06:55:53;;;;;;;17.75;7.55;;;;;;;17.03;100.00;101103.94;5019862;28;20053;-68
2023/09/01 06:58:19;;;;;;;13.07;6.63;;;;;;;17.05;100.00;101105.41;5010103;28;20056;-68
2023/09/01 07:00:46;;;;;;;15.45;7.40;;;;;;;17.09;100.00;101098.75;5020930;28;20188;-68
2023/09/01 07:03:12;;;;;;;8.95;6.70;;;;;;;17.20;100.00;101095.63;5014825;28;20052;-67
2023/09/01 07:05:39;;;;;;;10.60;6.53;;;;;;;17.25;100.00;101103.06;5022386;28;20056;-67
2023/09/01 07:08:10;;;;;;;14.07;6.95;;;;;;;17.37;100.00;101103.41;5013209;28;20096;-68
2023/09/01 07:10:36;;;;;;;13.60;6.95;;;;;;;17.38;100.00;101102.38;5014590;28;20049;-67
2023/09/01 07:13:03;;;;;;;14.02;6.93;;;;;;;17.48;100.00;101099.44;5019384;28;20508;-67
2023/09/01 07:15:29;;;;;;;15.88;7.38;;;;;;;17.57;100.00;101101.81;5016866;28;20050;-68
2023/09/01 07:17:56;;;;;;;12.77;6.38;;;;;;;17.68;100.00;101102.34;5021258;28;20509;-68
2023/09/01 07:20:22;;;;;;;13.40;7.03;;;;;;;17.71;100.00;101100.13;5010658;28;20056;-67
2023/09/01 07:22:49;;;;;;;10.15;6.75;;;;;;;17.74;100.00;101102.44;5019786;28;20115;-67
2023/09/01 07:25:15;;;;;;;16.20;6.82;;;;;;;17.72;100.00;101103.59;5017337;28;20682;-67
2023/09/01 07:27:42;;;;;;;19.55;6.82;;;;;;;17.72;100.00;101099.16;5016962;28;20050;-67
2023/09/01 07:30:13;;;;;;;10.93;6.78;;;;;;;17.76;100.00;101095.09;5012931;28;20552;-67
2023/09/01 07:32:40;;;;;;;11.07;6.75;;;;;;;17.83;100.00;101099.66;5016057;28;20045;-67
2023/09/01 07:35:07;;;;;;;11.73;6.70;;;;;;;17.88;100.00;101102.63;5000978;28;20664;-67
2023/09/01 07:37:33;;;;;;;13.35;6.95;;;;;;;17.91;100.00;101094.25;5020728;28;20049;-67
2023/09/01 07:40:00;;;;;;;13.88;6.50;;;;;;;17.95;100.00;101098.19;5026136;28;20104;-67
2023/09/01 07:42:26;;;;;;;13.63;5.88;;;;;;;18.03;100.00;101090.09;5023796;28;20667;-67
2023/09/01 07:44:54;;;;;;;11.98;6.55;;;;;;;18.15;100.00;101087.75;5017993;28;20084;-67
2023/09/01 07:47:21;;;;;;;14.30;6.78;;;;;;;18.23;100.00;101092.97;5020869;28;20059;-69
2023/09/01 07:49:47;;;;;;;8.63;4.72;;;;;;;18.38;100.00;101095.53;4996255;28;20479;-69
2023/09/01 07:52:14;;;;;;;12.15;7.07;;;;;;;18.46;100.00;101098.03;5025584;28;20053;-68
2023/09/01 07:54:42;;;;;;;12.48;6.55;;;;;;;18.52;100.00;101089.34;5024849;28;20904;-68
2023/09/01 07:57:08;;;;;;;;;;;;;;;18.65;100.00;101093.91;5021214;28;20053;-67
2023/09/01 07:59:35;;;;;;;9.55;6.55;;;;;;;18.68;100.00;101090.03;5024766;28;19932;-67
2023/09/01 08:02:02;;;;;;;10.25;6.60;;;;;;;18.67;100.00;101091.06;4996985;28;20100;-68
2023/09/01 08:04:28;;;;;;;11.27;5.25;;;;;;;18.70;100.00;101086.19;5024109;28;20080;-69
2023/09/01 08:06:55;;;;;;;12.20;6.80;;;;;;;18.68;100.00;101082.06;5013522;28;20077;-69
2023/09/01 08:09:22;;;;;;;8.77;5.57;;;;;;;18.67;100.00;101083.09;5024090;28;20056;-68
2023/09/01 08:11:48;;;;;;;13.30;6.80;;;;;;;18.75;100.00;101078.44;5010145;28;20077;-68
2023/09/01 08:14:14;;;;;;;10.48;6.20;;;;;;;18.77;100.00;101080.91;5018518;28;20057;-67
2023/09/01 08:16:41;;;;;;;11.95;5.93;;;;;;;18.82;100.00;101080.34;5016802;28;20112;-68
2023/09/01 08:19:08;;;;;;;8.73;5.82;;;;;;;18.88;100.00;101080.41;5015446;28;20528;-67
2023/09/01 08:21:34;;;;;;;8.27;5.43;;;;;;;18.95;100.00;101085.75;5021740;28;20104;-67
2023/09/01 08:24:01;;;;;;;8.88;5.22;;;;;;;19.06;100.00;101089.72;5019706;28;20511;-68
2023/09/01 08:26:27;;;;;;;10.20;5.97;;;;;;;19.12;100.00;101091.59;5024960;28;20053;-68
2023/09/01 08:28:54;;;;;;;9.73;4.88;;;;;;;19.20;100.00;101094.09;5005400;28;20069;-68
2023/09/01 08:31:20;;;;;;;10.30;5.03;;;;;;;19.26;100.00;101093.28;5011362;28;20049;-68
2023/09/01 08:33:47;;;;;;;9.30;4.72;;;;;;;19.33;100.00;101096.81;5022299;28;20049;-67
2023/09/01 08:36:14;;;;;;;6.95;4.90;;;;;;;19.34;100.00;101106.41;5019584;28;20148;-67
2023/09/01 08:38:40;;;;;;;8.48;4.47;;;;;;;19.41;100.00;101109.13;5022739;28;20147;-68
2023/09/01 08:41:09;;;;;;;7.20;4.82;;;;;;;19.50;100.00;101109.78;5018127;28;20132;-68
2023/09/01 08:43:40;;;;;;;8.85;5.00;;;;;;;19.42;100.00;101101.97;5011811;28;20720;-69
2023/09/01 08:46:07;;;;;;;9.85;5.13;;;;;;;19.41;100.00;101111.78;5018219;28;20525;-68
2023/09/01 08:48:41;;;;;;;5.88;3.65;;;;;;;19.46;100.00;101113.84;5019463;28;20152;-68
2023/09/01 08:51:08;;;;;;;8.07;4.50;;;;;;;19.46;100.00;101111.19;5022701;28;20509;-67
2023/09/01 08:53:38;;;;;;;11.80;5.50;;;;;;;19.45;100.00;101113.03;5018111;28;20049;-68
2023/09/01 08:56:05;;;;;;;11.00;5.07;;;;;;;19.49;100.00;101114.28;5022926;28;20417;-68
2023/09/01 08:58:32;;;;;;;8.30;4.57;;;;;;;19.54;100.00;101113.66;5017121;28;20510;-67
2023/09/01 09:00:59;;;;;;;6.95;4.32;;;;;;;19.46;100.00;101117.31;5019234;28;20088;-67
2023/09/01 09:03:25;;;;;;;9.40;5.53;;;;;;;19.45;100.00;101126.34;5025457;28;20050;-67
2023/09/01 09:05:52;;;;;;;7.95;4.00;;;;;;;19.55;100.00;101131.28;5021365;28;20048;-67
2023/09/01 09:08:20;;;;;;;7.75;4.65;;;;;;;19.48;100.00;101131.28;5019982;28;20094;-66
2023/09/01 09:10:46;;;;;;;7.83;5.07;;;;;;;19.52;100.00;101132.53;5001693;28;20057;-67
2023/09/01 09:13:24;;;;;;;15.25;5.25;;;;;;;19.50;100.00;101126.56;5014888;28;20126;-67
2023/09/01 09:16:14;;;;;;;10.02;5.50;;;;;;;19.47;100.00;101131.47;5015738;28;20107;-67
2023/09/01 09:18:46;;;;;;;9.02;5.05;;;;;;;19.49;100.00;101126.75;5004600;28;20049;-68
2023/09/01 09:21:25;;;;;;;10.45;5.15;;;;;;;19.39;100.00;101129.78;5024351;28;20077;-67
2023/09/01 09:23:53;;;;;;;9.27;4.95;;;;;;;19.47;100.00;101120.81;5024062;28;20057;-67
2023/09/01 09:26:37;;;;;;;9.43;3.70;;;;;;;19.59;100.00;101129.88;5005906;28;20052;-67
2023/09/01 09:29:11;;;;;;;7.90;4.95;;;;;;;19.57;100.00;101126.59;5001230;28;20085;-68
2023/09/01 09:31:44;;;;;;;9.85;5.90;;;;;;;19.55;100.00;101136.63;5019838;28;20053;-67
2023/09/01 09:34:19;;;;;;;11.77;5.70;;;;;;;19.54;100.00;101132.28;5015197;28;20136;-69
2023/09/01 09:36:47;;;;;;;9.38;5.70;;;;;;;19.51;100.00;101136.19;5026304;28;20136;-67
2023/09/01 09:39:25;;;;;;;15.10;6.80;;;;;;;19.48;100.00;101133.09;5027767;28;20056;-68
2023/09/01 09:41:52;;;;;;;9.23;5.32;;;;;;;19.52;100.00;101147.63;5016375;28;20105;-67
2023/09/01 09:44:28;;;;;;;8.98;4.88;;;;;;;19.47;100.00;101137.59;5026478;28;20047;-67
2023/09/01 09:46:55;;;;;;;9.18;5.95;;;;;;;19.46;100.00;101138.59;5015735;28;20049;-67
2023/09/01 09:49:23;;;;;;;10.88;5.72;;;;;;;19.48;100.00;101143.72;5022358;28;20054;-67
2023/09/01 09:51:53;;;;;;;;;;;;;;;19.51;100.00;101138.03;5015500;28;20414;-67
2023/09/01 09:54:22;;;;;;;9.25;4.55;;;;;;;19.52;100.00;101145.81;5018936;28;19929;-67
2023/09/01 09:56:50;;;;;;;9.82;5.75;;;;;;;19.55;100.00;101142.75;5017300;28;20053;-68
2023/09/01 09:59:37;;;;;;;8.77;5.95;;;;;;;19.56;100.00;101143.56;5025307;28;20056;-67
2023/09/01 10:02:23;;;;;;;11.57;5.90;;;;;;;19.40;100.00;101143.91;5020130;28;20136;-68
2023/09/01 10:04:52;;;;;;;7.50;5.28;;;;;;;19.41;100.00;101149.03;5010121;28;20049;-68
2023/09/01 10:07:21;;;;;;;9.32;6.35;;;;;;;19.44;100.00;101143.28;5013149;28;20440;-67
2023/09/01 10:09:48;;;;;;;10.23;5.30;;;;;;;19.44;100.00;101135.31;5010412;28;20050;-68
2023/09/01 10:12:15;;;;;;;8.02;4.65;;;;;;;19.45;100.00;101139.63;5030532;28;20045;-68
2023/09/01 10:14:43;;;;;;;9.65;6.25;;;;;;;19.44;100.00;101147.81;5004896;28;20060;-68
2023/09/01 10:17:12;;;;;;;6.95;4.88;;;;;;;19.42;100.00;101147.19;5000679;28;20060;-67
2023/09/01 10:19:38;;;;;;;10.00;6.63;;;;;;;19.40;100.00;101152.69;4987756;28;20044;-68
2023/09/01 10:22:07;;;;;;;10.48;4.78;;;;;;;19.41;100.00;101154.34;5013503;28;20045;-68
2023/09/01 10:24:33;;;;;;;11.07;6.28;;;;;;;19.36;100.00;101148.78;5028972;28;20064;-68
2023/09/01 10:27:07;;;;;;;10.05;6.10;;;;;;;19.28;100.00;101151.63;5013322;28;20122;-67
2023/09/01 10:29:34;;;;;;;10.60;5.43;;;;;;;19.24;100.00;101150.38;5026986;28;20045;-68
2023/09/01 10:32:17;;;;;;;7.95;5.60;;;;;;;19.28;100.00;101144.44;5014948;28;20049;-68
2023/09/01 10:34:52;;;;;;;6.55;4.68;;;;;;;19.27;100.00;101144.66;5019793;28;20060;-67
2023/09/01 10:37:31;;;;;;;8.00;5.03;;;;;;;19.23;100.00;101143.38;5009000;28;20053;-67
2023/09/01 10:39:57;;;;;;;5.22;4.28;;;;;;;19.17;100.00;101145.84;5025890;28;20968;-68
2023/09/01 10:42:40;;;;;;;6.38;4.00;;;;;;;19.11;100.00;101145.78;5024006;28;20044;-68
2023/09/01 10:45:08;;;;;;;8.00;5.00;;;;;;;19.10;100.00;101138.81;5021095;28;20099;-67
2023/09/01 10:47:38;;;;;;;5.55;3.97;;;;;;;19.11;100.00;101141.28;5024287;28;20049;-68
2023/09/01 10:50:06;;;;;;;6.05;4.00;;;;;;;19.11;100.00;101143.97;4993202;28;20085;-68
2023/09/01 10:52:34;;;;;;;7.00;4.70;;;;;;;19.10;100.00;101149.47;5020951;28;20068;-68
2023/09/01 10:55:03;;;;;;;7.85;4.70;;;;;;;19.10;100.00;101152.13;5018982;28;20501;-67
2023/09/01 10:57:46;;;;;;;6.43;4.72;;;;;;;19.08;100.00;101152.31;5023707;28;20088;-68
2023/09/01 11:00:33;;;;;;;6.05;4.10;;;;;;;19.12;100.00;101147.44;5020963;28;20048;-68
2023/09/01 11:03:33;;;;;;;6.80;5.33;;;;;;;19.21;100.00;101150.75;5024660;28;20045;-67
2023/09/01 11:06:06;;;;;;;9.20;5.15;;;;;;;19.24;100.00;101147.69;5020869;28;20279;-67
2023/09/01 11:08:32;;;;;;;8.25;5.75;;;;;;;19.27;100.00;101150.00;5026799;28;20085;-69
2023/09/01 11:11:09;;;;;;;9.55;5.97;;;;;;;19.27;100.00;101150.81;5023698;28;20053;-68
2023/09/01 11:13:36;;;;;;;8.63;5.90;;;;;;;19.29;100.00;101154.09;5027016;28;20088;-69
2023/09/01 11:16:12;;;;;;;6.55;5.72;;;;;;;19.27;100.00;101152.66;5023085;28;20056;-68
2023/09/01 11:18:40;;;;;;;8.45;5.78;;;;;;;19.25;100.00;101155.50;5016479;28;20053;-67